createdAt,value
2022-11-13T00:01:21.267Z,6.17
2022-11-13T00:04:06.781Z,6.25
2022-11-13T00:06:57.754Z,6.33
2022-11-13T00:09:44.285Z,6.44
2022-11-13T00:12:29.876Z,6.50
2022-11-13T00:15:15.571Z,6.59
2022-11-13T00:18:02.547Z,6.63
2022-11-13T00:20:47.699Z,6.72
2022-11-13T00:23:36.835Z,6.77
2022-11-13T00:26:25.316Z,6.81
2022-11-13T00:29:10.563Z,6.82
2022-11-13T00:31:56.065Z,6.89
2022-11-13T00:34:47.518Z,6.93
2022-11-13T00:37:33.692Z,6.93
2022-11-13T00:40:18.924Z,6.95
2022-11-13T00:43:04.178Z,6.95
2022-11-13T00:45:49.849Z,6.96
2022-11-13T00:48:35.975Z,6.96
2022-11-13T00:51:20.768Z,6.96
2022-11-13T00:54:06.197Z,6.99
2022-11-13T00:56:51.494Z,6.99
2022-11-13T00:59:36.883Z,7.00
2022-11-13T01:02:22.171Z,7.03
2022-11-13T01:05:07.955Z,6.99
2022-11-13T01:07:53.412Z,6.94
2022-11-13T01:10:42.428Z,6.88
2022-11-13T01:13:27.465Z,6.92
2022-11-13T01:16:14.902Z,6.84
2022-11-13T01:19:00.020Z,6.86
2022-11-13T01:21:45.231Z,6.81
2022-11-13T01:24:31.702Z,6.84
2022-11-13T01:27:17.160Z,6.82
2022-11-13T01:30:02.221Z,6.84
2022-11-13T01:32:47.597Z,6.83
2022-11-13T01:35:33.136Z,6.82
2022-11-13T01:38:18.415Z,6.79
2022-11-13T01:41:05.124Z,6.79
2022-11-13T01:43:51.172Z,6.77
2022-11-13T01:46:45.672Z,6.76
2022-11-13T01:49:34.126Z,6.80
2022-11-13T01:52:27.236Z,6.76
2022-11-13T01:55:15.731Z,6.71
2022-11-13T01:58:02.660Z,6.63
2022-11-13T02:00:48.218Z,6.64
2022-11-13T02:03:33.538Z,6.61
2022-11-13T02:06:20.343Z,6.58
2022-11-13T02:09:06.688Z,6.63
2022-11-13T02:11:52.727Z,6.59
2022-11-13T02:14:41.945Z,6.60
2022-11-13T02:17:32.827Z,6.62
2022-11-13T02:20:27.197Z,6.66
2022-11-13T02:23:21.059Z,6.73
2022-11-13T02:26:06.664Z,6.73
2022-11-13T02:28:52.024Z,6.71
2022-11-13T02:31:37.155Z,6.67
2022-11-13T02:34:22.713Z,6.72
2022-11-13T02:37:07.732Z,6.78
2022-11-13T02:39:52.924Z,6.79
2022-11-13T02:42:38.395Z,6.83
2022-11-13T02:45:23.658Z,6.88
2022-11-13T02:48:08.914Z,6.91
2022-11-13T02:50:54.563Z,6.93
2022-11-13T02:53:40.283Z,6.84
2022-11-13T02:56:25.605Z,6.96
2022-11-13T02:59:10.784Z,6.91
2022-11-13T03:01:56.266Z,7.01
2022-11-13T03:05:10.344Z,6.97
2022-11-13T03:07:47.060Z,6.87
2022-11-13T03:10:32.490Z,6.85
2022-11-13T03:13:17.876Z,6.78
2022-11-13T03:16:21.317Z,6.80
2022-11-13T03:19:07.161Z,6.81
2022-11-13T03:21:52.232Z,6.81
2022-11-13T03:24:37.536Z,6.83
2022-11-13T03:27:22.891Z,6.73
2022-11-13T03:30:08.787Z,6.66
2022-11-13T03:32:57.906Z,6.74
2022-11-13T03:35:46.945Z,6.71
2022-11-13T03:38:32.523Z,6.81
2022-11-13T03:41:17.837Z,6.90
2022-11-13T03:44:03.035Z,6.92
2022-11-13T03:46:48.340Z,6.87
2022-11-13T03:49:33.712Z,6.87
2022-11-13T03:52:18.943Z,6.82
2022-11-13T03:55:04.543Z,6.82
2022-11-13T03:57:50.088Z,6.87
2022-11-13T04:00:37.543Z,6.87
2022-11-13T04:03:23.750Z,6.91
2022-11-13T04:06:09.604Z,6.93
2022-11-13T04:08:54.636Z,6.88
2022-11-13T04:11:39.982Z,6.83
2022-11-13T04:14:25.251Z,6.81
2022-11-13T04:17:10.713Z,6.76
2022-11-13T04:19:55.959Z,6.79
2022-11-13T04:22:41.472Z,6.84
2022-11-13T04:25:27.469Z,6.81
2022-11-13T04:28:13.698Z,6.79
2022-11-13T04:30:59.143Z,6.75
2022-11-13T04:33:44.335Z,6.71
2022-11-13T04:36:29.628Z,6.66
2022-11-13T04:39:14.944Z,6.62
2022-11-13T04:42:19.022Z,6.57
2022-11-13T04:45:04.840Z,6.58
2022-11-13T04:47:51.404Z,6.57
2022-11-13T04:50:36.838Z,6.59
2022-11-13T04:53:22.407Z,6.53
2022-11-13T04:56:07.900Z,6.56
2022-11-13T04:58:53.470Z,6.57
2022-11-13T05:01:38.841Z,6.56
2022-11-13T05:04:24.768Z,6.54
2022-11-13T05:07:10.403Z,6.53
2022-11-13T05:09:55.778Z,6.50
2022-11-13T05:12:41.205Z,6.57
2022-11-13T05:15:26.650Z,6.59
2022-11-13T05:18:12.061Z,6.53
2022-11-13T05:20:57.784Z,6.48
2022-11-13T05:23:43.171Z,6.47
2022-11-13T05:26:28.858Z,6.45
2022-11-13T05:29:13.886Z,6.47
2022-11-13T05:31:59.176Z,6.45
2022-11-13T05:34:44.388Z,6.45
2022-11-13T05:37:29.834Z,6.29
2022-11-13T05:40:15.732Z,6.25
2022-11-13T05:43:00.781Z,6.24
2022-11-13T05:45:46.278Z,6.21
2022-11-13T05:48:32.833Z,6.18
2022-11-13T05:51:21.736Z,6.14
2022-11-13T05:54:07.340Z,6.14
2022-11-13T05:56:52.430Z,6.16
2022-11-13T05:59:37.774Z,6.03
2022-11-13T06:02:23.269Z,6.05
2022-11-13T06:05:08.885Z,5.94
2022-11-13T06:07:53.900Z,5.88
2022-11-13T06:10:39.177Z,5.84
2022-11-13T06:13:24.527Z,5.85
2022-11-13T06:16:11.921Z,5.85
2022-11-13T06:18:59.339Z,5.79
2022-11-13T06:21:44.782Z,5.73
2022-11-13T06:24:30.044Z,5.76
2022-11-13T06:27:15.378Z,5.77
2022-11-13T06:30:00.884Z,5.63
2022-11-13T06:32:52.223Z,5.75
2022-11-13T06:35:37.356Z,5.69
2022-11-13T06:38:22.830Z,5.70
2022-11-13T06:41:09.639Z,5.64
2022-11-13T06:43:58.587Z,5.74
2022-11-13T06:46:47.312Z,5.63
2022-11-13T06:49:32.453Z,5.63
2022-11-13T06:52:17.720Z,5.64
2022-11-13T06:55:03.143Z,5.61
2022-11-13T06:57:48.383Z,5.69
2022-11-13T07:00:37.013Z,5.61
2022-11-13T07:03:26.661Z,5.68
2022-11-13T07:06:19.032Z,5.72
2022-11-13T07:09:04.329Z,5.70
2022-11-13T07:11:49.546Z,5.75
2022-11-13T07:14:34.787Z,5.79
2022-11-13T07:17:19.995Z,5.80
2022-11-13T07:20:05.898Z,5.88
2022-11-13T07:22:52.043Z,5.91
2022-11-13T07:25:37.332Z,5.97
2022-11-13T07:28:22.736Z,5.90
2022-11-13T07:31:08.115Z,5.97
2022-11-13T07:33:53.551Z,6.07
2022-11-13T07:36:38.756Z,6.11
2022-11-13T07:39:23.892Z,6.19
2022-11-13T07:42:09.478Z,6.13
2022-11-13T07:44:55.516Z,6.20
2022-11-13T07:47:40.993Z,6.18
2022-11-13T07:50:36.997Z,6.23
2022-11-13T07:53:23.145Z,6.27
2022-11-13T07:56:08.600Z,6.25
2022-11-13T07:58:53.743Z,6.33
2022-11-13T08:01:39.427Z,6.37
2022-11-13T08:04:24.712Z,6.46
2022-11-13T08:07:11.842Z,6.57
2022-11-13T08:09:57.235Z,6.69
2022-11-13T08:12:42.892Z,6.77
2022-11-13T08:15:29.631Z,6.78
2022-11-13T08:18:14.868Z,6.79
2022-11-13T08:21:06.289Z,6.87
2022-11-13T08:23:54.523Z,6.90
2022-11-13T08:26:40.384Z,6.93
2022-11-13T08:29:25.842Z,6.98
2022-11-13T08:32:14.893Z,7.01
2022-11-13T08:35:00.130Z,7.05
2022-11-13T08:37:45.542Z,7.03
2022-11-13T08:40:30.938Z,7.07
2022-11-13T08:43:16.056Z,7.08
2022-11-13T08:46:01.613Z,7.05
2022-11-13T08:48:46.750Z,7.03
2022-11-13T08:51:32.082Z,7.08
2022-11-13T08:54:17.847Z,7.07
2022-11-13T08:57:05.957Z,7.11
2022-11-13T08:59:51.311Z,7.08
2022-11-13T09:02:36.661Z,7.08
2022-11-13T09:05:22.506Z,7.12
2022-11-13T09:08:07.622Z,7.14
2022-11-13T09:10:52.947Z,7.18
2022-11-13T09:13:43.722Z,7.23
2022-11-13T09:16:30.064Z,7.31
2022-11-13T09:19:15.402Z,7.33
2022-11-13T09:22:00.649Z,7.42
2022-11-13T09:24:46.213Z,7.38
2022-11-13T09:27:32.645Z,7.42
2022-11-13T09:30:18.169Z,7.48
2022-11-13T09:33:04.133Z,7.53
2022-11-13T09:35:49.342Z,7.59
2022-11-13T09:38:34.608Z,7.59
2022-11-13T09:41:24.550Z,7.61
2022-11-13T09:44:24.804Z,7.59
2022-11-13T09:47:18.140Z,7.60
2022-11-13T09:50:14.477Z,7.63
2022-11-13T09:52:59.584Z,7.63
2022-11-13T09:56:05.015Z,7.61
2022-11-13T09:58:59.780Z,7.61
2022-11-13T10:01:50.771Z,7.62
2022-11-13T10:05:13.516Z,7.72
2022-11-13T10:08:13.670Z,7.67
2022-11-13T10:11:14.610Z,7.67
2022-11-13T10:14:31.653Z,7.76
2022-11-13T10:17:38.795Z,7.77
2022-11-13T10:20:32.027Z,7.84
2022-11-13T10:23:24.569Z,7.79
2022-11-13T10:26:21.781Z,7.67
2022-11-13T10:29:19.600Z,7.73
2022-11-13T10:32:28.912Z,7.72
2022-11-13T10:35:39.766Z,7.76
2022-11-13T10:38:46.628Z,7.80
2022-11-13T10:41:33.088Z,7.82
2022-11-13T10:44:21.895Z,7.85
2022-11-13T10:47:22.595Z,7.88
2022-11-13T10:50:21.185Z,7.85
2022-11-13T10:53:14.992Z,7.82
2022-11-13T10:56:00.645Z,7.84
2022-11-13T10:58:46.297Z,7.90
2022-11-13T11:01:31.539Z,7.88
2022-11-13T11:04:27.385Z,7.83
2022-11-13T11:07:20.113Z,8.11
2022-11-13T11:10:19.615Z,8.31
2022-11-13T11:13:22.722Z,8.30
2022-11-13T11:16:09.647Z,8.67
2022-11-13T11:19:02.082Z,9.46
2022-11-13T11:21:51.405Z,9.72
2022-11-13T11:24:42.296Z,9.56
2022-11-13T11:28:05.044Z,12.28
2022-11-13T11:30:56.065Z,11.19
2022-11-13T11:34:01.346Z,12.33
2022-11-13T11:37:05.868Z,13.54
2022-11-13T11:40:01.060Z,12.22
2022-11-13T11:43:09.485Z,12.67
2022-11-13T11:45:54.550Z,12.97
2022-11-13T11:48:40.615Z,12.20
2022-11-13T11:51:31.473Z,11.90
2022-11-13T11:54:43.769Z,11.43
2022-11-13T11:57:57.997Z,13.64
2022-11-13T12:01:28.334Z,14.97
2022-11-13T12:04:36.240Z,16.50
2022-11-13T12:07:27.258Z,16.58
2022-11-13T12:10:31.318Z,16.39
2022-11-13T12:13:30.204Z,13.79
2022-11-13T12:16:24.645Z,13.01
2022-11-13T12:19:23.247Z,12.10
2022-11-13T12:22:47.147Z,11.58
2022-11-13T12:26:09.196Z,10.79
2022-11-13T12:29:32.902Z,10.41
2022-11-13T12:32:48.472Z,10.22
2022-11-13T12:35:33.480Z,9.97
2022-11-13T12:38:35.096Z,9.78
2022-11-13T12:41:46.691Z,9.67
2022-11-13T12:44:45.046Z,9.66
2022-11-13T12:47:30.977Z,9.71
2022-11-13T12:50:32.782Z,9.66
2022-11-13T12:53:28.608Z,9.55
2022-11-13T12:56:27.581Z,9.56
2022-11-13T12:59:34.329Z,9.40
2022-11-13T13:02:40.841Z,9.32
2022-11-13T13:05:40.594Z,9.45
2022-11-13T13:08:43.019Z,9.39
2022-11-13T13:11:36.926Z,9.18
2022-11-13T13:14:43.480Z,9.16
2022-11-13T13:17:28.951Z,8.93
2022-11-13T13:20:14.734Z,8.84
2022-11-13T13:23:04.839Z,8.79
2022-11-13T13:26:02.721Z,8.69
2022-11-13T13:28:52.563Z,8.48
2022-11-13T13:31:41.260Z,8.47
2022-11-13T13:34:45.067Z,8.42
2022-11-13T13:37:43.563Z,8.41
2022-11-13T13:41:04.447Z,8.38
2022-11-13T13:44:04.249Z,8.33
2022-11-13T13:46:49.645Z,8.42
2022-11-13T13:49:36.282Z,8.37
2022-11-13T13:52:29.820Z,8.32
2022-11-13T13:55:25.052Z,8.32
2022-11-13T13:58:15.403Z,8.32
2022-11-13T14:01:18.173Z,8.30
2022-11-13T14:04:15.136Z,8.46
2022-11-13T14:07:02.558Z,8.28
2022-11-13T14:09:47.819Z,8.33
2022-11-13T14:12:33.424Z,8.33
2022-11-13T14:15:28.852Z,8.32
2022-11-13T14:18:16.103Z,8.31
2022-11-13T14:21:23.516Z,8.29
2022-11-13T14:24:16.779Z,8.30
2022-11-13T14:27:08.808Z,8.30
2022-11-13T14:29:59.667Z,8.33
2022-11-13T14:32:47.283Z,8.26
2022-11-13T14:35:33.094Z,8.28
2022-11-13T14:38:26.429Z,8.26
2022-11-13T14:41:38.489Z,8.27
2022-11-13T14:44:34.791Z,8.25
2022-11-13T14:47:37.139Z,8.25
2022-11-13T14:50:27.299Z,8.21
2022-11-13T14:53:12.468Z,8.24
2022-11-13T14:56:09.491Z,8.20
2022-11-13T14:58:54.514Z,8.21
2022-11-13T15:01:40.061Z,8.19
2022-11-13T15:04:26.276Z,8.21
2022-11-13T15:07:32.972Z,8.19
2022-11-13T15:10:20.418Z,8.21
2022-11-13T15:13:13.740Z,8.19
2022-11-13T15:15:58.914Z,8.23
2022-11-13T15:18:49.916Z,8.25
2022-11-13T15:21:35.499Z,8.26
2022-11-13T15:24:21.035Z,8.20
2022-11-13T15:27:06.597Z,8.20
2022-11-13T15:29:51.639Z,8.17
2022-11-13T15:32:37.713Z,8.14
2022-11-13T15:35:22.881Z,8.13
2022-11-13T15:38:09.038Z,8.12
2022-11-13T15:40:54.016Z,8.18
2022-11-13T15:43:46.160Z,8.19
2022-11-13T15:46:31.581Z,8.23
2022-11-13T15:49:16.902Z,8.25
2022-11-13T15:52:02.157Z,8.28
2022-11-13T15:54:47.588Z,8.24
2022-11-13T15:57:32.850Z,8.28
2022-11-13T16:00:21.543Z,8.28
2022-11-13T16:03:11.720Z,8.27
2022-11-13T16:05:59.249Z,8.34
2022-11-13T16:08:44.982Z,8.37
2022-11-13T16:11:34.315Z,8.30
2022-11-13T16:14:24.328Z,8.30
2022-11-13T16:17:19.884Z,8.32
2022-11-13T16:20:07.966Z,8.38
2022-11-13T16:22:52.888Z,8.41
2022-11-13T16:25:38.163Z,8.46
2022-11-13T16:28:23.645Z,8.46
2022-11-13T16:31:09.076Z,8.47
2022-11-13T16:33:54.396Z,8.42
2022-11-13T16:36:40.078Z,8.34
2022-11-13T16:39:25.549Z,8.30
2022-11-13T16:42:12.193Z,8.28
2022-11-13T16:44:57.259Z,8.25
2022-11-13T16:47:42.632Z,8.23
2022-11-13T16:50:32.976Z,8.20
2022-11-13T16:53:17.920Z,8.17
2022-11-13T16:56:12.373Z,8.11
2022-11-13T16:58:58.746Z,8.09
2022-11-13T17:01:44.091Z,8.05
2022-11-13T17:04:29.178Z,8.06
2022-11-13T17:07:16.201Z,8.03
2022-11-13T17:10:29.785Z,7.93
2022-11-13T17:13:06.807Z,7.80
2022-11-13T17:15:52.362Z,7.75
2022-11-13T17:18:37.812Z,7.74
2022-11-13T17:21:25.668Z,7.67
2022-11-13T17:24:10.799Z,7.65
2022-11-13T17:26:55.948Z,7.61
2022-11-13T17:29:41.344Z,7.60
2022-11-13T17:32:29.413Z,7.52
2022-11-13T17:35:14.561Z,7.47
2022-11-13T17:37:59.881Z,7.45
2022-11-13T17:40:45.112Z,7.41
2022-11-13T17:43:30.920Z,7.39
2022-11-13T17:46:17.919Z,7.34
2022-11-13T17:49:03.678Z,7.24
2022-11-13T17:51:48.791Z,7.19
2022-11-13T17:54:34.159Z,7.22
2022-11-13T17:57:22.831Z,7.17
2022-11-13T18:00:12.812Z,7.15
2022-11-13T18:02:57.882Z,7.14
2022-11-13T18:05:43.379Z,7.11
2022-11-13T18:08:28.562Z,7.04
2022-11-13T18:11:22.529Z,6.96
2022-11-13T18:14:08.905Z,6.93
2022-11-13T18:16:54.083Z,6.94
2022-11-13T18:19:39.598Z,6.98
2022-11-13T18:22:24.930Z,6.99
2022-11-13T18:25:10.264Z,7.03
2022-11-13T18:27:56.127Z,7.06
2022-11-13T18:30:41.987Z,7.04
2022-11-13T18:33:27.615Z,7.07
2022-11-13T18:36:13.338Z,7.06
2022-11-13T18:38:59.499Z,7.12
2022-11-13T18:41:44.859Z,7.04
2022-11-13T18:44:30.315Z,7.00
2022-11-13T18:47:15.563Z,6.91
2022-11-13T18:50:00.813Z,6.87
2022-11-13T18:52:46.158Z,6.90
2022-11-13T18:55:31.564Z,6.78
2022-11-13T18:58:16.934Z,6.86
2022-11-13T19:01:18.941Z,6.77
2022-11-13T19:04:22.936Z,6.76
2022-11-13T19:07:12.108Z,6.76
2022-11-13T19:09:57.879Z,6.79
2022-11-13T19:12:43.526Z,6.77
2022-11-13T19:15:28.628Z,6.80
2022-11-13T19:18:14.255Z,6.80
2022-11-13T19:21:09.386Z,6.80
2022-11-13T19:23:54.687Z,6.77
2022-11-13T19:26:40.736Z,6.81
2022-11-13T19:29:26.057Z,6.86
2022-11-13T19:32:11.329Z,6.93
2022-11-13T19:34:56.583Z,6.97
2022-11-13T19:37:41.859Z,7.04
2022-11-13T19:40:27.300Z,7.09
2022-11-13T19:43:12.770Z,7.15
2022-11-13T19:45:58.045Z,7.21
2022-11-13T19:48:44.924Z,7.28
2022-11-13T19:51:30.443Z,7.29
2022-11-13T19:54:16.648Z,7.32
2022-11-13T19:57:01.974Z,7.35
2022-11-13T19:59:47.199Z,7.40
2022-11-13T20:02:32.701Z,7.42
2022-11-13T20:05:17.945Z,7.40
2022-11-13T20:08:03.297Z,7.41
2022-11-13T20:10:48.646Z,7.41
2022-11-13T20:13:36.549Z,7.39
2022-11-13T20:16:23.555Z,7.40
2022-11-13T20:19:09.114Z,7.44
2022-11-13T20:21:54.406Z,7.47
2022-11-13T20:24:39.968Z,7.51
2022-11-13T20:27:25.096Z,7.55
2022-11-13T20:30:11.406Z,7.56
2022-11-13T20:32:56.413Z,7.59
2022-11-13T20:35:41.757Z,7.60
2022-11-13T20:38:30.595Z,7.60
2022-11-13T20:41:17.042Z,7.60
2022-11-13T20:44:03.459Z,7.59
2022-11-13T20:46:48.552Z,7.57
2022-11-13T20:49:33.828Z,7.57
2022-11-13T20:52:19.013Z,7.62
2022-11-13T20:55:04.670Z,7.64
2022-11-13T20:57:49.696Z,7.59
2022-11-13T21:00:35.185Z,7.62
2022-11-13T21:03:20.379Z,7.62
2022-11-13T21:06:06.427Z,7.59
2022-11-13T21:08:56.519Z,7.68
2022-11-13T21:11:41.776Z,7.58
2022-11-13T21:14:26.851Z,7.58
2022-11-13T21:17:12.166Z,7.49
2022-11-13T21:19:57.880Z,7.55
2022-11-13T21:22:43.557Z,7.51
2022-11-13T21:25:29.207Z,7.51
2022-11-13T21:28:15.688Z,7.56
2022-11-13T21:31:05.697Z,7.53
2022-11-13T21:33:51.246Z,7.53
2022-11-13T21:36:36.733Z,7.46
2022-11-13T21:39:22.792Z,7.43
2022-11-13T21:42:08.190Z,7.48
2022-11-13T21:44:53.560Z,7.42
2022-11-13T21:47:38.896Z,7.44
2022-11-13T21:50:24.142Z,7.46
2022-11-13T21:53:09.427Z,7.42
2022-11-13T21:55:54.656Z,7.50
2022-11-13T21:58:41.142Z,7.53
2022-11-13T22:01:27.206Z,7.61
2022-11-13T22:04:12.281Z,7.53
2022-11-13T22:06:57.786Z,7.51
2022-11-13T22:09:43.023Z,7.53
2022-11-13T22:12:28.412Z,7.44
2022-11-13T22:15:13.615Z,7.41
2022-11-13T22:17:58.862Z,7.48
2022-11-13T22:20:44.209Z,7.49
2022-11-13T22:23:29.733Z,7.48
2022-11-13T22:26:16.775Z,7.46
2022-11-13T22:29:01.846Z,7.44
2022-11-13T22:31:48.195Z,7.44
2022-11-13T22:34:33.408Z,7.39
2022-11-13T22:37:18.592Z,7.40
2022-11-13T22:40:04.102Z,7.38
2022-11-13T22:42:49.082Z,7.32
2022-11-13T22:45:34.457Z,7.38
2022-11-13T22:48:19.723Z,7.39
2022-11-13T22:51:07.778Z,7.38
2022-11-13T22:53:55.593Z,7.40
2022-11-13T22:56:41.392Z,7.44
2022-11-13T22:59:26.392Z,7.46
2022-11-13T23:02:11.873Z,7.43
2022-11-13T23:04:56.904Z,7.44
2022-11-13T23:07:42.358Z,7.46
2022-11-13T23:10:27.612Z,7.42
2022-11-13T23:13:13.040Z,7.38
2022-11-13T23:15:59.321Z,7.32
2022-11-13T23:18:45.166Z,7.30
2022-11-13T23:21:30.699Z,7.34
2022-11-13T23:24:15.812Z,7.35
2022-11-13T23:27:01.072Z,7.34
2022-11-13T23:29:50.075Z,7.34
2022-11-13T23:32:35.876Z,7.26
2022-11-13T23:35:21.426Z,7.24
2022-11-13T23:38:07.040Z,7.23
2022-11-13T23:40:57.516Z,7.23
2022-11-13T23:46:48.262Z,7.23
2022-11-13T23:49:33.649Z,7.26
2022-11-13T23:52:18.853Z,7.23
2022-11-13T23:55:04.630Z,7.28
2022-11-13T23:57:57.111Z,7.25
